createdAt,value
2022-09-11T00:01:28.384Z,0.90
2022-09-11T00:04:33.308Z,1.00
2022-09-11T00:07:36.724Z,0.97
2022-09-11T00:10:41.109Z,0.30
2022-09-11T00:13:44.368Z,0.73
2022-09-11T00:16:49.039Z,1.10
2022-09-11T00:19:52.379Z,1.70
2022-09-11T00:22:55.629Z,0.67
2022-09-11T00:26:03.173Z,3.93
2022-09-11T00:29:06.664Z,0.63
2022-09-11T00:32:12.584Z,0.50
2022-09-11T00:35:15.910Z,1.80
2022-09-11T00:38:19.137Z,1.10
2022-09-11T00:41:24.174Z,1.53
2022-09-11T00:44:46.169Z,1.13
2022-09-11T00:47:52.227Z,1.97
2022-09-11T00:50:56.615Z,1.60
2022-09-11T00:54:00.679Z,2.17
2022-09-11T00:57:06.058Z,1.33
2022-09-11T01:00:10.217Z,1.10
2022-09-11T01:03:15.156Z,2.20
2022-09-11T01:06:18.741Z,1.03
2022-09-11T01:09:22.310Z,1.80
2022-09-11T01:12:30.461Z,1.20
2022-09-11T01:15:38.035Z,2.53
2022-09-11T01:18:46.289Z,1.40
2022-09-11T01:21:56.195Z,1.17
2022-09-11T01:25:04.700Z,1.13
2022-09-11T01:28:10.331Z,0.50
2022-09-11T01:31:15.064Z,1.43
2022-09-11T01:34:22.868Z,0.60
2022-09-11T01:37:27.292Z,1.40
2022-09-11T01:40:36.723Z,1.07
2022-09-11T01:43:45.641Z,1.20
2022-09-11T01:46:50.039Z,2.13
2022-09-11T01:49:56.107Z,0.80
2022-09-11T01:53:00.688Z,0.47
2022-09-11T01:56:08.048Z,2.97
2022-09-11T01:59:15.761Z,0.70
2022-09-11T02:02:22.396Z,2.00
2022-09-11T02:05:27.828Z,1.73
2022-09-11T02:08:34.020Z,1.90
2022-09-11T02:11:40.873Z,0.93
2022-09-11T02:14:46.881Z,0.73
2022-09-11T02:17:52.561Z,1.13
2022-09-11T02:20:55.915Z,1.70
2022-09-11T02:23:59.205Z,1.63
2022-09-11T02:27:04.317Z,3.07
2022-09-11T02:30:09.885Z,2.00
2022-09-11T02:33:32.568Z,0.77
2022-09-11T02:36:40.561Z,4.40
2022-09-11T02:40:04.964Z,3.80
2022-09-11T02:43:13.471Z,1.83
2022-09-11T02:46:27.629Z,1.70
2022-09-11T02:49:39.113Z,2.27
2022-09-11T02:52:45.880Z,0.60
2022-09-11T02:55:54.803Z,1.80
2022-09-11T02:59:00.382Z,1.10
2022-09-11T03:02:05.560Z,0.97
2022-09-11T03:05:09.180Z,2.73
2022-09-11T03:08:13.080Z,0.80
2022-09-11T03:11:17.587Z,0.50
2022-09-11T03:14:20.834Z,1.60
2022-09-11T03:17:25.397Z,1.17
2022-09-11T03:20:28.676Z,0.93
2022-09-11T03:23:32.483Z,0.87
2022-09-11T03:26:35.819Z,2.60
2022-09-11T03:29:39.092Z,0.40
2022-09-11T03:32:43.663Z,1.70
2022-09-11T03:35:47.146Z,1.43
2022-09-11T03:38:50.388Z,0.70
2022-09-11T03:41:54.428Z,1.23
2022-09-11T03:44:57.682Z,1.07
2022-09-11T03:48:02.291Z,2.63
2022-09-11T03:51:05.807Z,0.97
2022-09-11T03:54:09.950Z,1.77
2022-09-11T03:57:13.620Z,0.70
2022-09-11T04:00:16.927Z,1.63
2022-09-11T04:03:21.495Z,0.77
2022-09-11T04:06:24.720Z,1.77
2022-09-11T04:09:27.947Z,1.67
2022-09-11T04:12:31.397Z,1.70
2022-09-11T04:15:35.596Z,0.87
2022-09-11T04:18:40.787Z,1.10
2022-09-11T04:21:44.013Z,0.80
2022-09-11T04:24:47.349Z,0.80
2022-09-11T04:27:50.575Z,0.50
2022-09-11T04:30:53.783Z,4.10
2022-09-11T04:33:58.436Z,0.77
2022-09-11T04:37:03.127Z,1.30
2022-09-11T04:40:06.946Z,1.07
2022-09-11T04:43:12.042Z,0.90
2022-09-11T04:46:16.074Z,2.40
2022-09-11T04:49:20.729Z,0.60
2022-09-11T04:52:25.119Z,0.97
2022-09-11T04:55:28.343Z,0.47
2022-09-11T04:58:31.641Z,3.00
2022-09-11T05:01:35.245Z,2.37
2022-09-11T05:04:40.071Z,2.30
2022-09-11T05:07:43.974Z,1.13
2022-09-11T05:10:48.155Z,5.57
2022-09-11T05:13:51.629Z,0.60
2022-09-11T05:16:55.088Z,1.03
2022-09-11T05:19:59.709Z,1.07
2022-09-11T05:23:03.332Z,0.70
2022-09-11T05:26:07.366Z,0.70
2022-09-11T05:29:12.939Z,0.80
2022-09-11T05:32:16.145Z,1.33
2022-09-11T05:35:21.095Z,0.63
2022-09-11T05:38:24.594Z,1.73
2022-09-11T05:41:28.120Z,2.73
2022-09-11T05:44:31.543Z,0.80
2022-09-11T05:47:34.901Z,1.03
2022-09-11T05:50:39.735Z,1.93
2022-09-11T05:53:43.342Z,4.17
2022-09-11T05:56:46.620Z,1.77
2022-09-11T05:59:49.864Z,3.27
2022-09-11T06:02:55.988Z,0.87
2022-09-11T06:06:02.406Z,1.20
2022-09-11T06:09:06.036Z,0.77
2022-09-11T06:12:12.828Z,3.70
2022-09-11T06:15:36.309Z,0.60
2022-09-11T06:18:39.541Z,1.20
2022-09-11T06:21:44.641Z,1.00
2022-09-11T06:24:49.701Z,0.60
2022-09-11T06:27:52.929Z,2.27
2022-09-11T06:30:56.186Z,2.77
2022-09-11T06:33:59.723Z,1.20
2022-09-11T06:37:04.271Z,2.50
2022-09-11T06:40:07.955Z,1.53
2022-09-11T06:43:12.048Z,1.00
2022-09-11T06:46:16.275Z,0.77
2022-09-11T06:49:19.603Z,1.20
2022-09-11T06:52:24.175Z,3.93
2022-09-11T06:55:27.804Z,2.77
2022-09-11T06:58:31.495Z,1.60
2022-09-11T07:01:34.809Z,1.87
2022-09-11T07:04:38.367Z,1.17
2022-09-11T07:07:44.049Z,1.07
2022-09-11T07:10:47.283Z,1.00
2022-09-11T07:13:50.557Z,2.20
2022-09-11T07:16:55.345Z,1.40
2022-09-11T07:19:58.658Z,0.87
2022-09-11T07:23:03.485Z,1.17
2022-09-11T07:26:07.355Z,1.03
2022-09-11T07:29:10.573Z,1.73
2022-09-11T07:32:13.806Z,1.20
2022-09-11T07:35:21.577Z,1.60
2022-09-11T07:38:26.162Z,0.70
2022-09-11T07:41:31.179Z,1.10
2022-09-11T07:44:34.453Z,1.00
2022-09-11T07:47:38.507Z,2.67
2022-09-11T07:50:41.782Z,1.23
2022-09-11T07:53:47.157Z,1.60
2022-09-11T07:56:50.396Z,1.60
2022-09-11T07:59:53.890Z,1.87
2022-09-11T08:02:57.112Z,2.53
2022-09-11T08:06:00.434Z,2.70
2022-09-11T08:09:06.617Z,1.47
2022-09-11T08:12:10.034Z,2.37
2022-09-11T08:15:13.358Z,2.30
2022-09-11T08:18:16.600Z,2.00
2022-09-11T08:21:19.985Z,2.37
2022-09-11T08:24:27.325Z,2.17
2022-09-11T08:27:31.048Z,1.50
2022-09-11T08:30:34.533Z,2.63
2022-09-11T08:33:37.863Z,1.97
2022-09-11T08:36:41.156Z,2.23
2022-09-11T08:39:45.749Z,1.60
2022-09-11T08:42:49.463Z,2.67
2022-09-11T08:45:55.697Z,2.70
2022-09-11T08:49:01.724Z,3.07
2022-09-11T08:52:06.220Z,2.70
2022-09-11T08:55:14.132Z,2.70
2022-09-11T08:58:20.951Z,1.90
2022-09-11T09:01:28.947Z,2.03
2022-09-11T09:04:43.479Z,2.90
2022-09-11T09:07:54.816Z,2.27
2022-09-11T09:11:03.839Z,1.80
2022-09-11T09:14:13.375Z,2.70
2022-09-11T09:17:19.261Z,2.40
2022-09-11T09:20:24.648Z,1.70
2022-09-11T09:23:30.158Z,2.37
2022-09-11T09:26:38.637Z,1.90
2022-09-11T09:29:43.392Z,2.60
2022-09-11T09:32:48.322Z,2.63
2022-09-11T09:35:51.575Z,3.03
2022-09-11T09:38:55.545Z,3.07
2022-09-11T09:42:11.956Z,2.73
2022-09-11T09:45:21.446Z,3.07
2022-09-11T09:48:25.048Z,2.57
2022-09-11T09:51:28.472Z,2.00
2022-09-11T09:54:33.935Z,3.13
2022-09-11T09:57:40.246Z,3.00
2022-09-11T10:00:44.193Z,3.17
2022-09-11T10:03:49.208Z,3.00
2022-09-11T10:06:53.263Z,3.17
2022-09-11T10:10:03.346Z,3.23
2022-09-11T10:13:20.185Z,3.27
2022-09-11T10:16:24.921Z,3.23
2022-09-11T10:19:36.729Z,4.27
2022-09-11T10:22:39.984Z,2.90
2022-09-11T10:25:47.752Z,4.00
2022-09-11T10:28:53.095Z,3.63
2022-09-11T10:31:57.424Z,2.97
2022-09-11T10:35:00.838Z,3.17
2022-09-11T10:38:14.995Z,3.27
2022-09-11T10:41:20.906Z,3.40
2022-09-11T10:44:26.005Z,2.87
2022-09-11T10:47:29.805Z,4.33
2022-09-11T10:50:34.318Z,2.50
2022-09-11T10:53:39.700Z,2.47
2022-09-11T10:56:48.087Z,2.90
2022-09-11T10:59:59.811Z,2.70
2022-09-11T11:03:06.265Z,2.67
2022-09-11T11:06:19.465Z,2.47
2022-09-11T11:09:31.130Z,2.20
2022-09-11T11:12:41.195Z,1.90
2022-09-11T11:15:54.325Z,2.03
2022-09-11T11:19:06.747Z,2.00
2022-09-11T11:22:16.488Z,2.63
2022-09-11T11:25:25.549Z,3.07
2022-09-11T11:28:44.784Z,2.10
2022-09-11T11:31:55.638Z,2.00
2022-09-11T11:35:06.356Z,2.10
2022-09-11T11:38:12.943Z,1.60
2022-09-11T11:41:19.099Z,2.37
2022-09-11T11:44:27.490Z,1.93
2022-09-11T11:47:34.327Z,2.20
2022-09-11T11:50:40.500Z,2.97
2022-09-11T11:53:46.119Z,3.00
2022-09-11T11:56:53.403Z,5.53
2022-09-11T11:59:58.183Z,2.40
2022-09-11T12:03:05.237Z,2.37
2022-09-11T12:06:08.722Z,2.78
2022-09-11T12:09:11.995Z,2.47
2022-09-11T12:12:16.504Z,2.50
2022-09-11T12:15:21.149Z,2.00
2022-09-11T12:18:26.437Z,1.80
2022-09-11T12:21:40.682Z,1.70
2022-09-11T12:24:59.038Z,2.30
2022-09-11T12:28:12.562Z,1.60
2022-09-11T12:31:16.664Z,2.05
2022-09-11T12:34:24.799Z,1.70
2022-09-11T12:37:28.869Z,1.60
2022-09-11T12:40:38.973Z,0.80
2022-09-11T12:43:49.485Z,1.00
2022-09-11T12:47:14.421Z,1.10
2022-09-11T12:50:20.529Z,0.80
2022-09-11T12:53:25.727Z,2.15
2022-09-11T12:56:34.757Z,3.03
2022-09-11T12:59:39.280Z,0.90
2022-09-11T13:02:44.793Z,2.10
2022-09-11T13:05:55.800Z,1.40
2022-09-11T13:09:01.556Z,1.63
2022-09-11T13:12:37.762Z,1.63
2022-09-11T13:15:42.624Z,1.13
2022-09-11T13:18:46.039Z,1.95
2022-09-11T13:21:52.063Z,1.50
2022-09-11T13:25:06.580Z,1.30
2022-09-11T13:28:10.448Z,1.40
2022-09-11T13:31:16.973Z,1.40
2022-09-11T13:34:21.879Z,1.10
2022-09-11T13:37:32.310Z,1.50
2022-09-11T13:40:41.424Z,1.52
2022-09-11T13:43:46.304Z,1.65
2022-09-11T13:46:53.389Z,1.45
2022-09-11T13:49:58.209Z,1.42
2022-09-11T13:53:02.848Z,1.05
2022-09-11T13:56:07.236Z,2.55
2022-09-11T13:59:36.766Z,1.13
2022-09-11T14:02:48.559Z,1.42
2022-09-11T14:05:53.834Z,1.35
2022-09-11T14:08:59.136Z,1.40
2022-09-11T14:12:03.946Z,1.20
2022-09-11T14:15:11.224Z,1.45
2022-09-11T14:18:18.202Z,0.90
2022-09-11T14:21:23.292Z,1.23
2022-09-11T14:24:29.226Z,1.35
2022-09-11T14:27:37.379Z,1.30
2022-09-11T14:30:40.913Z,2.08
2022-09-11T14:33:44.611Z,1.33
2022-09-11T14:36:50.081Z,1.55
2022-09-11T14:39:56.749Z,3.10
2022-09-11T14:43:00.149Z,2.00
2022-09-11T14:46:04.198Z,2.60
2022-09-11T14:49:09.476Z,2.50
2022-09-11T14:52:14.371Z,2.13
2022-09-11T14:55:19.688Z,1.92
2022-09-11T14:58:22.907Z,1.33
2022-09-11T15:01:26.703Z,2.10
2022-09-11T15:04:31.161Z,2.30
2022-09-11T15:07:36.396Z,1.92
2022-09-11T15:10:41.454Z,2.55
2022-09-11T15:14:11.086Z,1.85
2022-09-11T15:17:10.482Z,1.85
2022-09-11T15:20:13.794Z,1.77
2022-09-11T15:23:17.493Z,2.05
2022-09-11T15:26:22.133Z,1.98
2022-09-11T15:29:30.781Z,1.90
2022-09-11T15:32:34.700Z,2.15
2022-09-11T15:35:37.936Z,1.83
2022-09-11T15:38:41.722Z,3.30
2022-09-11T15:41:46.915Z,2.08
2022-09-11T15:44:50.798Z,2.13
2022-09-11T15:47:54.003Z,3.38
2022-09-11T15:51:01.173Z,2.45
2022-09-11T15:54:04.628Z,2.13
2022-09-11T15:57:09.225Z,2.00
2022-09-11T16:00:14.499Z,1.83
2022-09-11T16:03:17.751Z,2.15
2022-09-11T16:06:21.641Z,1.85
2022-09-11T16:09:26.724Z,2.45
2022-09-11T16:12:31.529Z,2.28
2022-09-11T16:15:35.613Z,2.23
2022-09-11T16:18:39.813Z,1.85
2022-09-11T16:21:43.082Z,2.05
2022-09-11T16:24:46.446Z,1.90
2022-09-11T16:27:52.189Z,5.50
2022-09-11T16:30:55.610Z,2.17
2022-09-11T16:33:59.020Z,1.95
2022-09-11T16:37:02.322Z,1.60
2022-09-11T16:40:06.109Z,1.90
2022-09-11T16:43:10.842Z,2.05
2022-09-11T16:46:15.327Z,4.03
2022-09-11T16:49:19.423Z,2.57
2022-09-11T16:52:22.671Z,2.05
2022-09-11T16:55:25.976Z,2.45
2022-09-11T16:58:30.571Z,2.17
2022-09-11T17:01:34.047Z,2.35
2022-09-11T17:04:37.326Z,3.95
2022-09-11T17:07:41.507Z,2.25
2022-09-11T17:10:45.367Z,2.60
2022-09-11T17:13:50.432Z,2.70
2022-09-11T17:16:53.668Z,2.95
2022-09-11T17:19:59.249Z,2.25
2022-09-11T17:23:03.615Z,2.73
2022-09-11T17:26:07.835Z,3.17
2022-09-11T17:29:13.044Z,2.90
2022-09-11T17:32:28.643Z,5.32
2022-09-11T17:35:32.583Z,2.80
2022-09-11T17:38:35.996Z,3.17
2022-09-11T17:41:39.269Z,3.43
2022-09-11T17:44:43.844Z,3.20
2022-09-11T17:47:47.071Z,4.33
2022-09-11T17:50:50.933Z,3.53
2022-09-11T17:53:55.384Z,3.85
2022-09-11T17:56:59.087Z,4.00
2022-09-11T18:00:04.451Z,3.03
2022-09-11T18:03:08.000Z,3.20
2022-09-11T18:06:19.220Z,3.73
2022-09-11T18:09:22.617Z,2.47
2022-09-11T18:12:28.281Z,3.93
2022-09-11T18:15:32.985Z,3.53
2022-09-11T18:18:36.232Z,4.13
2022-09-11T18:21:39.679Z,3.23
2022-09-11T18:24:42.896Z,4.03
2022-09-11T18:27:46.395Z,3.33
2022-09-11T18:30:51.091Z,3.17
2022-09-11T18:33:57.460Z,3.80
2022-09-11T18:37:00.829Z,3.20
2022-09-11T18:40:04.523Z,4.60
2022-09-11T18:43:08.828Z,4.37
2022-09-11T18:46:13.601Z,4.83
2022-09-11T18:49:17.329Z,4.13
2022-09-11T18:52:25.459Z,4.43
2022-09-11T18:55:29.381Z,4.30
2022-09-11T18:58:33.200Z,4.40
2022-09-11T19:01:39.030Z,4.73
2022-09-11T19:04:42.443Z,4.93
2022-09-11T19:07:46.572Z,5.03
2022-09-11T19:10:49.780Z,4.13
2022-09-11T19:13:53.699Z,5.13
2022-09-11T19:17:00.230Z,5.47
2022-09-11T19:20:04.509Z,5.27
2022-09-11T19:23:09.175Z,5.47
2022-09-11T19:26:13.469Z,4.00
2022-09-11T19:29:19.048Z,5.30
2022-09-11T19:32:24.635Z,5.17
2022-09-11T19:35:28.022Z,5.27
2022-09-11T19:38:32.342Z,5.67
2022-09-11T19:41:37.275Z,6.07
2022-09-11T19:44:40.852Z,9.30
2022-09-11T19:47:45.713Z,6.77
2022-09-11T19:50:49.029Z,7.20
2022-09-11T19:53:56.072Z,6.50
2022-09-11T19:57:00.336Z,7.33
2022-09-11T20:00:03.886Z,6.60
2022-09-11T20:03:08.509Z,7.50
2022-09-11T20:06:12.549Z,7.37
2022-09-11T20:09:32.496Z,8.20
2022-09-11T20:12:37.105Z,9.03
2022-09-11T20:15:41.048Z,8.00
2022-09-11T20:18:45.685Z,7.30
2022-09-11T20:21:49.227Z,6.50
2022-09-11T20:24:52.619Z,6.27
2022-09-11T20:27:55.932Z,5.37
2022-09-11T20:31:00.485Z,6.13
2022-09-11T20:34:05.222Z,6.80
2022-09-11T20:37:10.261Z,5.33
2022-09-11T20:40:14.003Z,5.67
2022-09-11T20:43:17.273Z,5.70
2022-09-11T20:46:20.931Z,5.57
2022-09-11T20:49:25.568Z,5.73
2022-09-11T20:52:29.107Z,5.73
2022-09-11T20:55:32.568Z,5.83
2022-09-11T20:58:36.134Z,5.73
2022-09-11T21:01:39.442Z,5.97
2022-09-11T21:04:44.173Z,6.97
2022-09-11T21:07:47.486Z,7.90
2022-09-11T21:10:51.130Z,7.83
2022-09-11T21:13:54.473Z,7.40
2022-09-11T21:16:57.800Z,7.80
2022-09-11T21:20:02.371Z,6.37
2022-09-11T21:23:05.870Z,7.20
2022-09-11T21:26:09.540Z,6.77
2022-09-11T21:29:13.961Z,5.67
2022-09-11T21:32:17.282Z,6.33
2022-09-11T21:35:21.884Z,5.97
2022-09-11T21:38:28.388Z,5.77
2022-09-11T21:41:32.067Z,5.13
2022-09-11T21:44:35.564Z,4.33
2022-09-11T21:47:38.827Z,5.03
2022-09-11T21:50:43.380Z,4.53
2022-09-11T21:53:47.621Z,4.30
2022-09-11T21:56:51.187Z,3.77
2022-09-11T21:59:54.541Z,4.80
2022-09-11T22:02:58.072Z,5.63
2022-09-11T22:06:06.321Z,4.97
2022-09-11T22:09:10.146Z,3.37
2022-09-11T22:12:13.371Z,3.70
2022-09-11T22:15:16.991Z,5.10
2022-09-11T22:18:20.283Z,4.33
2022-09-11T22:21:25.007Z,4.27
2022-09-11T22:24:28.523Z,4.67
2022-09-11T22:27:32.044Z,3.07
2022-09-11T22:30:35.395Z,3.27
2022-09-11T22:33:39.156Z,2.60
2022-09-11T22:36:43.977Z,2.53
2022-09-11T22:39:47.497Z,2.40
2022-09-11T22:42:51.433Z,2.37
2022-09-11T22:45:54.715Z,2.33
2022-09-11T22:48:58.283Z,1.97
2022-09-11T22:52:03.012Z,1.97
2022-09-11T22:55:06.693Z,1.73
2022-09-11T22:58:09.945Z,1.57
2022-09-11T23:01:21.013Z,2.63
2022-09-11T23:04:25.058Z,1.63
2022-09-11T23:07:29.196Z,1.70
2022-09-11T23:10:32.429Z,1.60
2022-09-11T23:13:36.099Z,1.93
2022-09-11T23:16:39.388Z,2.50
2022-09-11T23:19:42.815Z,2.00
2022-09-11T23:22:47.424Z,2.40
2022-09-11T23:25:50.918Z,2.23
2022-09-11T23:28:55.027Z,2.17
2022-09-11T23:31:58.359Z,2.53
2022-09-11T23:35:01.743Z,1.97
2022-09-11T23:38:06.359Z,1.67
2022-09-11T23:41:09.594Z,1.70
2022-09-11T23:44:12.888Z,2.43
2022-09-11T23:47:16.175Z,3.10
2022-09-11T23:50:20.738Z,1.60
2022-09-11T23:53:25.331Z,2.13
2022-09-11T23:56:28.542Z,1.57
2022-09-11T23:59:35.918Z,2.07
